Terminal Aerodrome Forecast
Issued by NWS

Current Version | Previous Version | Text Only | Print | Product List | Glossary Off
Versions: 1 2 3 4 5 6 7 8 9 10 11 12 13 14 15 16 17 18 19 20 21 22 23 24 25 26 27 28 29 30

049
FTUS41 KRNK 240600 RRA
TAFLWB
TAF
KLWB 240600Z 2406/2506 06008KT 6SM -RA SCT007 OVC015
     FM241700 08009KT 5SM -RA BR OVC008
     FM250000 06008KT P6SM OVC008=

USA.gov is the U.S. government's official web portal to all federal, state and local government web resources and services.